Time;durP1;ratioP1;P1;durP2;ratioP2;P2;SDS_P1;SDS_P2;PMS_P1;PMS_P2;Temp;Humidity;BMP_temperature;BMP_pressure;BME280_temperature;BME280_humidity;BME280_pressure;Samples;Min_cycle;Max_cycle;Signal;HPM_P1;HPM_P2
2022/09/15 00:00:53;;;;;;;10.70;7.32;;;;;;;13.62;84.02;97753.09;5050384;28;20453;-84
2022/09/15 00:03:20;;;;;;;10.52;7.10;;;;;;;13.90;83.17;97764.66;5065621;28;20115;-85
2022/09/15 00:05:46;;;;;;;12.65;7.68;;;;;;;13.44;85.28;97768.13;5042063;28;20024;-84
2022/09/15 00:08:12;;;;;;;11.35;7.40;;;;;;;13.40;84.37;97751.06;5060183;28;20517;-84
2022/09/15 00:10:39;;;;;;;13.27;7.50;;;;;;;13.29;85.63;97765.72;5055138;28;20036;-84
2022/09/15 00:13:04;;;;;;;12.60;7.90;;;;;;;13.20;84.65;97746.00;5065214;28;20028;-83
2022/09/15 00:15:29;;;;;;;16.63;8.13;;;;;;;13.34;84.64;97754.91;5056220;28;20040;-83
2022/09/15 00:17:55;;;;;;;10.60;7.85;;;;;;;13.51;84.86;97763.22;5061174;28;20024;-83
2022/09/15 00:20:21;;;;;;;13.82;7.32;;;;;;;13.51;84.23;97762.41;5065129;28;20113;-84
2022/09/15 00:22:47;;;;;;;17.45;11.20;;;;;;;12.31;86.43;97746.97;5062158;28;20032;-84
2022/09/15 00:25:14;;;;;;;9.27;7.78;;;;;;;12.75;87.79;97752.78;5060243;28;20032;-84
2022/09/15 00:27:40;;;;;;;21.15;10.38;;;;;;;13.22;83.98;97738.47;5067395;28;20377;-84
2022/09/15 00:30:06;;;;;;;9.77;7.43;;;;;;;13.50;84.54;97753.56;5034998;28;20373;-84
2022/09/15 00:32:32;;;;;;;14.27;8.23;;;;;;;13.48;83.93;97757.63;5049980;28;20037;-84
2022/09/15 00:34:58;;;;;;;13.30;7.90;;;;;;;13.69;83.19;97752.72;5069327;28;20468;-84
2022/09/15 00:37:24;;;;;;;12.32;8.35;;;;;;;13.34;83.92;97744.19;5065975;28;20107;-83
2022/09/15 00:39:49;;;;;;;14.82;8.32;;;;;;;12.90;86.30;97749.13;5062198;28;20031;-84
2022/09/15 00:42:17;;;;;;;12.57;7.93;;;;;;;12.80;86.48;97746.56;5060900;28;20127;-84
2022/09/15 00:44:47;;;;;;;23.27;12.60;;;;;;;12.72;85.36;97761.41;5069685;28;20468;-83
2022/09/15 00:47:13;;;;;;;14.20;8.60;;;;;;;12.62;87.92;97752.72;5066105;28;20074;-83
2022/09/15 00:49:39;;;;;;;20.42;10.48;;;;;;;12.41;87.30;97749.50;5065025;28;20032;-83
2022/09/15 00:52:28;;;;;;;18.30;8.77;;;;;;;13.34;84.55;97757.59;5066995;28;20488;-83
2022/09/15 00:55:16;;;;;;;14.82;8.38;;;;;;;13.45;83.24;97759.00;5066324;28;20046;-84
2022/09/15 00:57:45;;;;;;;15.88;7.75;;;;;;;13.61;82.69;97766.81;5027255;28;20039;-83
2022/09/15 01:00:14;;;;;;;9.43;7.75;;;;;;;13.47;82.18;97745.31;5063621;28;20032;-83
2022/09/15 01:02:42;;;;;;;12.77;9.32;;;;;;;13.40;83.10;97763.66;5066321;28;20031;-83
2022/09/15 01:05:13;;;;;;;10.13;7.88;;;;;;;13.44;82.66;97738.66;5059021;28;20140;-84
2022/09/15 01:07:43;;;;;;;11.55;7.80;;;;;;;13.58;82.10;97762.03;5067427;28;20071;-83
2022/09/15 01:10:14;;;;;;;12.20;9.15;;;;;;;13.19;82.09;97744.41;5045611;28;20421;-83
2022/09/15 01:12:41;;;;;;;14.35;8.60;;;;;;;13.41;83.24;97771.41;5086208;28;20487;-83
2022/09/15 01:15:06;;;;;;;19.77;10.70;;;;;;;13.34;82.44;97762.16;5067649;28;20039;-83
2022/09/15 01:17:38;;;;;;;13.18;8.75;;;;;;;13.12;83.21;97778.84;5062795;28;20029;-83
2022/09/15 01:20:31;;;;;;;16.95;9.45;;;;;;;13.40;82.67;97772.50;5066952;28;20045;-83
2022/09/15 01:23:27;;;;;;;12.57;7.97;;;;;;;13.52;82.10;97772.81;5074804;28;20597;-83
2022/09/15 01:25:53;;;;;;;12.23;8.27;;;;;;;13.51;82.34;97779.28;5062527;28;20037;-83
2022/09/15 01:28:42;;;;;;;15.60;9.13;;;;;;;13.11;83.08;97779.09;5068050;28;20031;-83
2022/09/15 01:31:16;;;;;;;19.88;10.43;;;;;;;13.14;83.09;97778.53;5063044;28;20533;-83
2022/09/15 01:33:45;;;;;;;18.95;10.32;;;;;;;13.22;83.35;97783.22;5059949;28;20052;-83
2022/09/15 01:36:24;;;;;;;14.23;9.57;;;;;;;13.24;83.24;97763.09;5061960;28;20063;-83
2022/09/15 01:39:11;;;;;;;25.73;13.23;;;;;;;11.86;87.15;97785.69;5058496;28;20037;-84
2022/09/15 01:41:52;;;;;;;24.70;14.77;;;;;;;11.37;91.18;97779.69;5064281;28;20262;-84
2022/09/15 01:44:25;;;;;;;25.08;13.55;;;;;;;11.82;88.85;97762.47;5059847;28;20040;-83
2022/09/15 01:46:59;;;;;;;17.10;10.65;;;;;;;12.69;86.35;97763.84;5067958;28;20036;-84
2022/09/15 01:49:29;;;;;;;16.83;10.02;;;;;;;13.17;83.80;97788.69;5060037;28;20035;-84
2022/09/15 01:51:54;;;;;;;13.60;10.05;;;;;;;13.07;84.21;97770.06;5065411;28;20449;-84
2022/09/15 01:54:31;;;;;;;15.95;10.00;;;;;;;13.44;83.17;97786.09;5066788;28;20067;-83
2022/09/15 01:56:57;;;;;;;23.15;13.68;;;;;;;12.67;84.33;97787.44;5066952;28;20449;-84
2022/09/15 01:59:23;;;;;;;17.52;10.30;;;;;;;12.87;84.84;97773.00;5076829;28;20029;-83
2022/09/15 02:02:04;;;;;;;28.73;12.73;;;;;;;13.09;83.69;97778.59;5060752;28;20035;-83
2022/09/15 02:04:37;;;;;;;25.58;14.05;;;;;;;12.42;85.66;97777.88;5065622;28;20877;-84
2022/09/15 02:07:19;;;;;;;17.40;11.90;;;;;;;12.71;84.63;97764.41;5065364;28;20027;-84
2022/09/15 02:10:35;;;;;;;19.13;11.57;;;;;;;12.28;86.64;97766.25;5065320;28;20427;-84
2022/09/15 02:13:10;;;;;;;20.88;12.15;;;;;;;12.75;84.96;97752.03;5053871;28;20404;-83
2022/09/15 02:15:42;;;;;;;20.65;13.32;;;;;;;12.76;85.57;97777.69;5064942;28;20032;-84
2022/09/15 02:18:13;;;;;;;22.63;14.95;;;;;;;11.71;90.58;97780.50;5073631;28;20431;-84
2022/09/15 02:20:41;;;;;;;23.67;14.27;;;;;;;12.17;89.40;97769.31;5071202;28;20028;-83
2022/09/15 02:23:20;;;;;;;26.48;16.17;;;;;;;12.28;88.69;97766.25;5070398;28;20101;-83
2022/09/15 02:25:52;;;;;;;32.53;16.38;;;;;;;12.31;88.96;97772.91;5046936;28;20028;-83
2022/09/15 02:28:24;;;;;;;28.17;17.92;;;;;;;12.49;86.88;97761.47;5074139;28;20519;-84
2022/09/15 02:30:54;;;;;;;29.55;15.63;;;;;;;12.76;86.35;97758.94;5051767;28;20469;-84
2022/09/15 02:33:24;;;;;;;23.55;15.02;;;;;;;12.83;86.12;97751.34;5033011;28;20025;-83
2022/09/15 02:35:51;;;;;;;24.35;14.00;;;;;;;12.88;86.05;97767.38;5063466;28;20025;-83
2022/09/15 02:38:17;;;;;;;31.38;20.33;;;;;;;12.58;87.49;97762.44;5066499;28;20117;-84
2022/09/15 02:40:43;;;;;;;27.83;15.23;;;;;;;13.30;84.52;97750.44;5065632;28;20036;-83
2022/09/15 02:43:15;;;;;;;24.65;16.63;;;;;;;13.26;85.31;97758.25;5065748;28;20028;-83
2022/09/15 02:45:41;;;;;;;19.17;13.32;;;;;;;13.20;85.72;97783.53;5065303;28;20035;-83
2022/09/15 02:48:09;;;;;;;25.45;15.30;;;;;;;13.26;84.59;97736.00;5066184;28;20020;-83
2022/09/15 02:50:35;;;;;;;22.30;14.23;;;;;;;13.12;85.48;97753.91;5064733;28;20118;-83
2022/09/15 02:53:02;;;;;;;22.58;14.20;;;;;;;13.54;84.23;97765.28;5065328;28;20032;-83
2022/09/15 02:55:27;;;;;;;22.25;14.98;;;;;;;12.91;86.07;97748.03;5066631;28;20413;-83
2022/09/15 02:57:54;;;;;;;21.70;14.80;;;;;;;13.41;84.48;97749.19;5064008;28;20120;-83
2022/09/15 03:00:19;;;;;;;23.90;15.90;;;;;;;13.05;86.24;97759.66;5065455;28;20031;-83
2022/09/15 03:02:48;;;;;;;28.95;16.80;;;;;;;13.36;85.30;97770.69;5049035;28;20032;-83
2022/09/15 03:05:15;;;;;;;24.45;16.15;;;;;;;13.26;85.63;97777.00;5068652;28;20094;-84
2022/09/15 03:07:41;;;;;;;28.88;16.52;;;;;;;13.24;85.17;97763.09;5059007;28;20503;-84
2022/09/15 03:10:08;;;;;;;30.35;18.50;;;;;;;13.31;85.01;97773.44;5062567;28;20041;-84
2022/09/15 03:12:45;;;;;;;22.60;15.75;;;;;;;13.16;84.88;97753.06;5052950;28;20048;-85
2022/09/15 03:15:12;;;;;;;38.22;22.10;;;;;;;13.26;85.24;97758.25;5052632;28;20037;-84
2022/09/15 03:17:42;;;;;;;28.38;17.55;;;;;;;13.49;85.02;97776.09;5050819;28;20028;-84
2022/09/15 03:20:09;;;;;;;36.55;21.92;;;;;;;13.28;84.68;97771.38;5067187;28;20043;-83
2022/09/15 03:22:35;;;;;;;30.98;18.17;;;;;;;13.00;85.11;97761.56;5065784;28;20476;-84
2022/09/15 03:25:00;;;;;;;33.97;18.60;;;;;;;13.38;84.44;97776.56;5066938;28;20067;-84
2022/09/15 03:27:26;;;;;;;25.73;17.80;;;;;;;13.36;84.74;97765.34;5068249;28;20671;-84
2022/09/15 03:29:52;;;;;;;31.08;20.95;;;;;;;13.46;83.30;97770.53;5054911;28;20031;-84
2022/09/15 03:32:17;;;;;;;26.98;18.10;;;;;;;13.46;84.03;97773.19;5070753;28;20025;-83
2022/09/15 03:34:43;;;;;;;35.28;19.20;;;;;;;13.02;85.91;97772.81;5064917;28;20052;-84
2022/09/15 03:37:08;;;;;;;31.55;18.42;;;;;;;13.06;85.84;97779.97;5066353;28;20048;-84
2022/09/15 03:39:34;;;;;;;28.35;18.52;;;;;;;13.53;83.74;97768.25;5069069;28;20346;-84
2022/09/15 03:41:59;;;;;;;39.05;22.80;;;;;;;12.75;85.15;97744.00;5052974;28;20036;-84
2022/09/15 03:44:25;;;;;;;40.83;22.95;;;;;;;12.22;89.78;97769.28;5070776;28;20027;-84
2022/09/15 03:46:50;;;;;;;34.13;21.50;;;;;;;12.63;87.18;97760.47;5060602;28;20062;-84
2022/09/15 03:49:16;;;;;;;33.95;19.48;;;;;;;12.95;86.35;97751.75;5051591;28;20031;-84
2022/09/15 03:51:41;;;;;;;36.13;22.65;;;;;;;12.45;87.71;97749.75;5049889;28;20031;-83
2022/09/15 03:54:07;;;;;;;42.65;23.90;;;;;;;12.50;87.42;97771.88;5060236;28;20025;-84
2022/09/15 03:56:32;;;;;;;51.00;23.83;;;;;;;12.57;85.95;97774.19;5063457;28;20025;-84
2022/09/15 03:59:02;;;;;;;36.38;22.05;;;;;;;12.33;87.48;97765.41;5058447;28;20056;-84
2022/09/15 04:01:29;;;;;;;42.50;25.27;;;;;;;12.01;89.07;97769.50;5068101;28;20086;-83
2022/09/15 04:03:56;;;;;;;50.45;26.33;;;;;;;11.67;89.88;97760.75;5065184;28;20036;-82
2022/09/15 04:06:22;;;;;;;49.13;27.83;;;;;;;11.71;89.75;97751.09;5066795;28;20123;-82
2022/09/15 04:08:49;;;;;;;60.50;30.38;;;;;;;11.57;91.05;97755.47;5062373;28;20036;-81
2022/09/15 04:11:16;;;;;;;41.70;24.98;;;;;;;12.31;87.90;97776.41;5064656;28;20086;-82
2022/09/15 04:13:43;;;;;;;39.53;23.20;;;;;;;12.47;87.23;97759.06;5067821;28;20429;-82
2022/09/15 04:16:14;;;;;;;51.80;26.88;;;;;;;12.49;86.88;97775.63;5071362;28;20043;-82
2022/09/15 04:18:40;;;;;;;40.20;21.83;;;;;;;12.56;87.24;97772.59;5065399;28;20032;-81
2022/09/15 04:21:09;;;;;;;36.00;21.58;;;;;;;12.97;85.89;97783.59;5062621;28;20028;-82
2022/09/15 04:23:35;;;;;;;45.17;25.88;;;;;;;12.52;87.11;97779.59;5059940;28;20044;-81
2022/09/15 04:26:04;;;;;;;37.25;22.08;;;;;;;12.99;85.79;97779.53;5063526;28;20028;-82
2022/09/15 04:28:32;;;;;;;48.38;24.45;;;;;;;13.00;85.34;97788.34;5044474;28;20039;-81
2022/09/15 04:31:09;;;;;;;46.97;23.60;;;;;;;12.73;86.66;97772.94;5065439;28;20498;-81
2022/09/15 04:33:37;;;;;;;43.92;24.05;;;;;;;13.16;85.63;97793.25;5063173;28;20038;-82
2022/09/15 04:36:05;;;;;;;45.20;21.80;;;;;;;13.28;85.19;97790.13;5062486;28;20119;-81
2022/09/15 04:38:31;;;;;;;39.35;23.02;;;;;;;13.18;85.24;97779.53;5044982;28;20025;-80
2022/09/15 04:40:57;;;;;;;46.08;26.48;;;;;;;13.16;85.78;97782.53;5048702;28;20174;-80
2022/09/15 04:43:24;;;;;;;43.70;24.30;;;;;;;13.09;86.04;97784.75;5069403;28;20522;-80
2022/09/15 04:45:49;;;;;;;40.65;24.73;;;;;;;13.24;85.17;97779.19;5067876;28;20388;-80
2022/09/15 04:48:15;;;;;;;40.90;22.80;;;;;;;13.30;85.70;97796.75;5069461;28;20040;-81
2022/09/15 04:50:41;;;;;;;42.00;24.00;;;;;;;13.26;85.41;97777.00;5053703;28;20115;-81
2022/09/15 04:53:07;;;;;;;44.67;24.58;;;;;;;13.35;85.34;97780.63;5063731;28;20028;-80
2022/09/15 04:55:33;;;;;;;40.08;24.02;;;;;;;13.37;85.00;97786.47;5063119;28;20135;-80
2022/09/15 04:57:59;;;;;;;40.50;22.10;;;;;;;13.46;84.25;97778.56;5068916;28;20047;-81
2022/09/15 05:00:28;;;;;;;37.38;23.65;;;;;;;13.33;84.43;97777.44;5070556;28;20055;-81
2022/09/15 05:02:53;;;;;;;49.08;22.85;;;;;;;13.32;84.17;97767.78;5076067;28;20092;-81
2022/09/15 05:05:19;;;;;;;44.40;22.60;;;;;;;13.37;84.48;97783.00;5031408;28;20111;-81
2022/09/15 05:07:48;;;;;;;36.95;22.25;;;;;;;13.35;84.61;97783.28;5069432;28;20047;-81
2022/09/15 05:10:13;;;;;;;38.80;23.00;;;;;;;13.11;85.29;97768.38;5053591;28;20059;-80
2022/09/15 05:12:40;;;;;;;37.03;21.88;;;;;;;13.29;84.45;97781.78;5069517;28;20472;-81
2022/09/15 05:15:06;;;;;;;40.65;22.77;;;;;;;13.14;84.91;97782.00;5061983;28;20599;-80
2022/09/15 05:17:32;;;;;;;34.63;21.38;;;;;;;13.24;84.68;97803.28;5064954;28;20488;-81
2022/09/15 05:19:58;;;;;;;38.97;21.48;;;;;;;13.11;85.01;97787.94;5070904;28;20036;-81
2022/09/15 05:22:24;;;;;;;39.33;22.38;;;;;;;13.03;85.45;97795.81;5050466;28;20410;-81
2022/09/15 05:24:49;;;;;;;39.83;21.75;;;;;;;13.20;84.92;97788.09;5069435;28;20163;-80
2022/09/15 05:27:15;;;;;;;40.80;20.58;;;;;;;13.30;84.36;97794.09;5050235;28;20029;-81
2022/09/15 05:29:40;;;;;;;36.80;22.23;;;;;;;13.33;84.47;97804.22;5066089;28;20035;-81
2022/09/15 05:32:06;;;;;;;34.70;21.15;;;;;;;13.02;85.33;97788.88;5071392;28;20038;-81
2022/09/15 05:34:31;;;;;;;39.88;22.10;;;;;;;13.08;85.33;97795.78;5058082;28;20024;-81
2022/09/15 05:36:56;;;;;;;36.17;20.92;;;;;;;13.13;85.38;97811.75;5048771;28;20488;-80
2022/09/15 05:39:22;;;;;;;39.85;21.73;;;;;;;13.12;85.12;97802.16;5071910;28;20028;-80
2022/09/15 05:41:48;;;;;;;40.85;20.38;;;;;;;13.36;84.74;97811.69;5062481;28;20078;-81
2022/09/15 05:44:13;;;;;;;40.38;21.15;;;;;;;13.27;84.81;97789.31;5048524;28;20033;-81
2022/09/15 05:46:38;;;;;;;38.85;21.95;;;;;;;13.29;84.39;97794.38;5037476;28;20039;-81
2022/09/15 05:49:04;;;;;;;33.83;18.85;;;;;;;13.63;83.68;97808.31;5068785;28;20027;-81
2022/09/15 05:51:29;;;;;;;34.28;18.13;;;;;;;13.63;83.58;97802.16;5095315;28;20024;-81
2022/09/15 05:53:55;;;;;;;38.28;20.65;;;;;;;13.62;83.90;97803.25;5089243;28;20027;-81
2022/09/15 05:56:21;;;;;;;31.67;18.27;;;;;;;13.58;83.70;97795.00;5081419;28;20032;-81
2022/09/15 05:58:47;;;;;;;43.47;21.40;;;;;;;13.41;83.56;97779.44;5087352;28;20145;-81
2022/09/15 06:01:21;;;;;;;33.83;21.02;;;;;;;13.62;83.89;97805.94;5077813;28;20849;-81
2022/09/15 06:03:47;;;;;;;36.72;19.90;;;;;;;13.59;83.33;97788.53;5066072;28;20024;-81
2022/09/15 06:06:12;;;;;;;37.15;21.17;;;;;;;13.67;83.45;97803.16;5082512;28;20571;-81
2022/09/15 06:08:41;;;;;;;38.38;19.60;;;;;;;13.57;83.70;97780.00;5068142;28;20407;-82
2022/09/15 06:11:10;;;;;;;33.70;18.83;;;;;;;13.80;83.30;97808.59;5086989;28;20036;-82
2022/09/15 06:13:36;;;;;;;35.25;20.70;;;;;;;13.81;83.79;97807.47;5085595;28;20024;-81
2022/09/15 06:16:04;;;;;;;37.95;21.63;;;;;;;13.72;84.41;97805.75;5094498;28;20025;-81
2022/09/15 06:18:29;;;;;;;33.17;19.83;;;;;;;13.71;83.95;97798.81;5075445;28;20085;-81
2022/09/15 06:20:55;;;;;;;35.13;21.42;;;;;;;13.72;84.56;97797.69;5056488;28;20033;-81
2022/09/15 06:23:20;;;;;;;34.33;21.35;;;;;;;13.80;84.39;97813.13;5039818;28;20036;-81
2022/09/15 06:25:45;;;;;;;39.60;23.17;;;;;;;13.48;86.16;97804.00;5073146;28;20131;-80
2022/09/15 06:28:11;;;;;;;42.33;21.85;;;;;;;13.75;84.44;97803.28;5074235;28;20525;-81
2022/09/15 06:30:39;;;;;;;44.97;21.65;;;;;;;13.80;84.62;97813.13;5076195;28;20082;-81
2022/09/15 06:33:04;;;;;;;37.65;21.67;;;;;;;13.85;84.45;97815.72;5084643;28;20036;-81
2022/09/15 06:35:29;;;;;;;43.63;22.02;;;;;;;13.60;85.69;97795.50;5076210;28;20050;-81
2022/09/15 06:37:55;;;;;;;35.83;20.65;;;;;;;13.40;85.28;97769.81;5075773;28;20028;-81
2022/09/15 06:40:20;;;;;;;43.72;22.70;;;;;;;13.74;85.16;97815.09;5069331;28;20028;-81
2022/09/15 06:42:45;;;;;;;37.72;21.13;;;;;;;13.85;85.10;97805.78;5080427;28;20034;-81
2022/09/15 06:45:11;;;;;;;40.45;21.35;;;;;;;13.75;84.54;97789.09;5083299;28;20389;-81
2022/09/15 06:47:36;;;;;;;36.15;21.67;;;;;;;13.92;84.78;97814.25;5068287;28;20043;-81
2022/09/15 06:50:03;;;;;;;38.80;22.70;;;;;;;13.82;85.07;97819.81;5073576;28;20036;-81
2022/09/15 06:52:29;;;;;;;38.25;21.85;;;;;;;13.72;84.80;97795.03;5081061;28;20118;-81
2022/09/15 06:55:04;;;;;;;35.40;20.65;;;;;;;13.52;85.38;97769.34;5072213;28;20124;-81
2022/09/15 06:57:29;;;;;;;38.15;23.27;;;;;;;13.89;84.70;97830.16;5057186;28;20388;-81
2022/09/15 06:59:55;;;;;;;41.08;21.58;;;;;;;13.69;85.69;97830.47;5080572;28;20036;-81
2022/09/15 07:02:20;;;;;;;38.55;21.30;;;;;;;13.92;85.05;97830.34;5076903;28;20059;-80
2022/09/15 07:04:45;;;;;;;38.85;21.05;;;;;;;13.90;84.87;97837.09;5071421;28;20020;-80
2022/09/15 07:07:11;;;;;;;42.90;24.02;;;;;;;13.90;85.01;97840.59;5052487;28;20041;-81
2022/09/15 07:09:36;;;;;;;44.35;22.85;;;;;;;13.85;85.13;97826.44;5069000;28;20033;-81
2022/09/15 07:12:02;;;;;;;38.58;22.42;;;;;;;13.80;85.13;97822.00;5055391;28;20485;-81
2022/09/15 07:14:27;;;;;;;39.25;22.23;;;;;;;13.88;84.74;97828.56;5071057;28;20033;-81
2022/09/15 07:16:52;;;;;;;34.38;22.27;;;;;;;13.99;84.35;97838.03;5070770;28;20060;-80
2022/09/15 07:19:18;;;;;;;41.92;23.48;;;;;;;13.82;84.65;97841.25;5071924;28;20115;-80
2022/09/15 07:21:43;;;;;;;39.08;22.08;;;;;;;13.74;85.05;97822.38;5064461;28;20032;-80
2022/09/15 07:24:09;;;;;;;34.40;21.88;;;;;;;13.94;84.84;97852.31;5068878;28;20032;-81
2022/09/15 07:26:35;;;;;;;45.20;23.55;;;;;;;13.96;85.30;97860.06;5080071;28;20460;-81
2022/09/15 07:29:03;;;;;;;36.17;22.13;;;;;;;14.00;84.15;97845.00;5057663;28;20033;-81
2022/09/15 07:31:31;;;;;;;38.78;21.80;;;;;;;14.09;84.49;97849.38;5086518;28;20042;-81
2022/09/15 07:34:01;;;;;;;38.05;23.20;;;;;;;14.00;84.45;97843.09;5068229;28;20122;-81
2022/09/15 07:36:27;;;;;;;38.05;21.83;;;;;;;13.81;85.51;97841.53;5064549;28;20086;-80
2022/09/15 07:38:52;;;;;;;33.90;21.05;;;;;;;13.77;85.69;97833.28;5066409;28;20031;-81
2022/09/15 07:41:20;;;;;;;34.97;20.85;;;;;;;14.07;85.33;97858.81;5074864;28;20399;-81
2022/09/15 07:43:53;;;;;;;35.35;22.50;;;;;;;14.19;84.17;97854.56;5092945;28;20032;-81
2022/09/15 07:46:21;;;;;;;36.75;22.50;;;;;;;13.90;85.10;97824.50;5077327;28;20087;-81
2022/09/15 07:48:48;;;;;;;31.98;20.63;;;;;;;14.22;83.97;97856.66;5079194;28;20127;-81
2022/09/15 07:51:14;;;;;;;34.83;19.67;;;;;;;14.08;84.59;97842.44;5074166;28;20032;-81
2022/09/15 07:53:40;;;;;;;29.52;18.50;;;;;;;14.18;84.02;97854.84;5071346;28;20560;-81
2022/09/15 07:56:06;;;;;;;37.13;20.52;;;;;;;14.18;84.41;97863.69;5074555;28;20150;-81
2022/09/15 07:58:33;;;;;;;35.25;19.17;;;;;;;14.26;83.92;97862.25;5055283;28;20378;-81
2022/09/15 08:01:03;;;;;;;31.15;18.90;;;;;;;14.26;83.24;97862.25;5069577;28;20526;-81
2022/09/15 08:03:29;;;;;;;27.77;18.08;;;;;;;13.98;84.29;97841.78;5047806;28;20399;-80
2022/09/15 08:05:59;;;;;;;30.52;18.63;;;;;;;14.27;83.41;97853.06;5092509;28;20106;-80
2022/09/15 08:08:24;;;;;;;31.70;18.33;;;;;;;14.24;84.64;97877.84;5091186;28;20027;-81
2022/09/15 08:10:50;;;;;;;31.60;19.27;;;;;;;14.20;84.38;97866.88;5074354;28;20028;-81
2022/09/15 08:13:15;;;;;;;32.75;19.67;;;;;;;14.28;84.38;97882.31;5091379;28;20024;-81
2022/09/15 08:15:40;;;;;;;28.13;17.25;;;;;;;14.31;84.67;97893.59;5071873;28;20032;-80
2022/09/15 08:18:06;;;;;;;29.90;16.25;;;;;;;14.40;83.47;97887.22;5070330;28;20029;-80
2022/09/15 08:20:32;;;;;;;31.95;17.83;;;;;;;14.50;83.59;97900.50;5070727;28;20033;-81
2022/09/15 08:22:58;;;;;;;28.50;15.50;;;;;;;14.32;84.14;97893.28;5070649;28;20249;-80
2022/09/15 08:25:23;;;;;;;28.35;16.45;;;;;;;14.41;83.80;97878.09;5079949;28;20024;-80
2022/09/15 08:27:49;;;;;;;31.15;16.13;;;;;;;14.59;83.05;97887.94;5085058;28;20052;-80
2022/09/15 08:30:14;;;;;;;23.17;14.02;;;;;;;14.62;82.88;97886.56;5070463;28;20123;-80
2022/09/15 08:32:40;;;;;;;36.38;16.58;;;;;;;14.54;83.13;97881.88;5053874;28;20476;-80
2022/09/15 08:35:07;;;;;;;32.08;16.77;;;;;;;14.61;82.93;97882.28;5034781;28;20044;-80
2022/09/15 08:37:33;;;;;;;26.67;15.00;;;;;;;14.44;83.03;97874.81;5073759;28;20025;-80
2022/09/15 08:39:58;;;;;;;23.73;15.13;;;;;;;14.74;82.31;97895.72;5064306;28;20039;-81
2022/09/15 08:42:25;;;;;;;24.45;16.10;;;;;;;14.54;83.34;97904.16;5053655;28;20561;-81
2022/09/15 08:45:08;;;;;;;24.25;15.02;;;;;;;14.51;83.76;97899.38;5090579;28;20395;-80
2022/09/15 08:47:43;;;;;;;22.55;14.38;;;;;;;14.55;83.36;97895.00;5070565;28;20029;-80
2022/09/15 08:50:21;;;;;;;21.52;13.98;;;;;;;14.65;83.22;97904.78;5078853;28;20037;-80
2022/09/15 08:52:57;;;;;;;23.33;14.77;;;;;;;14.53;84.38;97913.31;5079284;28;20491;-80
2022/09/15 08:55:54;;;;;;;24.48;13.35;;;;;;;14.66;83.28;97904.47;5068141;28;20033;-80
2022/09/15 08:58:23;;;;;;;26.60;14.27;;;;;;;14.66;82.39;97893.72;5067092;28;20106;-80
2022/09/15 09:00:56;;;;;;;23.52;13.85;;;;;;;14.65;82.38;97894.03;5090289;28;20032;-80
2022/09/15 09:03:36;;;;;;;27.60;15.82;;;;;;;14.48;83.26;97883.84;5067399;28;20056;-80
2022/09/15 09:06:07;;;;;;;23.15;12.35;;;;;;;14.64;82.96;97912.03;5072355;28;20020;-80
2022/09/15 09:08:59;;;;;;;19.05;11.90;;;;;;;14.72;82.99;97903.28;5072838;28;20024;-80
2022/09/15 09:11:55;;;;;;;17.10;11.93;;;;;;;14.69;83.71;97914.63;5078818;28;20498;-80
2022/09/15 09:14:33;;;;;;;19.85;10.90;;;;;;;14.72;82.87;97922.06;5075561;28;20029;-80
2022/09/15 09:17:35;;;;;;;16.42;10.02;;;;;;;14.71;83.32;97923.19;5084677;28;20043;-80
2022/09/15 09:20:18;;;;;;;18.02;10.60;;;;;;;14.72;82.20;97903.28;5070035;28;20035;-80
2022/09/15 09:22:47;;;;;;;25.77;11.00;;;;;;;14.80;81.71;97904.47;5083767;28;20498;-80
2022/09/15 09:25:17;;;;;;;19.08;11.32;;;;;;;14.68;82.82;97906.84;5080772;28;20407;-80
2022/09/15 09:27:43;;;;;;;17.92;9.23;;;;;;;15.02;81.54;97912.63;5077504;28;20028;-80
2022/09/15 09:30:14;;;;;;;15.05;8.70;;;;;;;15.11;81.00;97916.22;5075770;28;20039;-81
2022/09/15 09:33:22;;;;;;;22.20;11.93;;;;;;;14.70;83.07;97902.78;5073557;28;20486;-80
2022/09/15 09:35:52;;;;;;;18.05;10.93;;;;;;;14.77;82.45;97894.31;5069051;28;20040;-80
2022/09/15 09:38:31;;;;;;;15.48;10.50;;;;;;;14.94;82.23;97913.31;5076376;28;20032;-80
2022/09/15 09:40:56;;;;;;;14.45;9.20;;;;;;;15.12;80.70;97912.44;5077649;28;20024;-81
2022/09/15 09:43:22;;;;;;;13.85;9.60;;;;;;;15.21;81.06;97920.56;5042988;28;20123;-80
2022/09/15 09:45:47;;;;;;;18.35;9.55;;;;;;;15.06;81.54;97926.25;5059587;28;20033;-80
2022/09/15 09:48:18;;;;;;;16.10;8.65;;;;;;;14.91;81.43;97913.94;5063832;28;20093;-80
2022/09/15 09:50:43;;;;;;;18.25;10.52;;;;;;;14.84;81.31;97908.97;5085203;28;20024;-80
2022/09/15 09:53:29;;;;;;;15.32;9.27;;;;;;;14.94;81.45;97922.19;5059911;28;20034;-80
2022/09/15 09:56:10;;;;;;;17.38;9.02;;;;;;;14.85;81.90;97909.75;5076554;28;20115;-80
2022/09/15 09:58:35;;;;;;;13.60;7.60;;;;;;;15.05;81.35;97913.94;5076196;28;20028;-80
2022/09/15 10:01:12;;;;;;;13.23;7.57;;;;;;;15.10;80.85;97890.44;5059661;28;20029;-80
2022/09/15 10:03:38;;;;;;;12.98;7.60;;;;;;;15.16;81.11;97908.03;5087844;28;20028;-80
2022/09/15 10:06:23;;;;;;;10.10;7.10;;;;;;;15.15;81.00;97898.41;5064850;28;20444;-80
2022/09/15 10:08:56;;;;;;;13.48;7.50;;;;;;;15.30;80.43;97905.34;5076391;28;20380;-80
2022/09/15 10:11:45;;;;;;;12.43;6.95;;;;;;;15.11;80.75;97878.59;5076159;28;20024;-80
2022/09/15 10:14:32;;;;;;;10.23;6.03;;;;;;;15.29;80.54;97901.06;5077426;28;20028;-80
2022/09/15 10:17:14;;;;;;;10.60;7.15;;;;;;;15.32;79.86;97887.81;5074974;28;20698;-80
2022/09/15 10:19:56;;;;;;;9.75;5.70;;;;;;;15.43;79.92;97897.28;5081968;28;20032;-80
2022/09/15 10:22:39;;;;;;;12.43;5.43;;;;;;;15.25;79.56;97890.09;5079008;28;20036;-80
2022/09/15 10:25:32;;;;;;;8.50;5.80;;;;;;;15.43;79.19;97899.97;5072207;28;20041;-80
2022/09/15 10:28:07;;;;;;;10.05;5.25;;;;;;;15.50;79.51;97900.34;5069381;28;20075;-80
2022/09/15 10:30:33;;;;;;;12.27;7.88;;;;;;;15.41;79.60;97902.13;5071108;28;20059;-80
2022/09/15 10:33:18;;;;;;;7.88;5.25;;;;;;;15.50;79.46;97900.34;5072248;28;20059;-80
2022/09/15 10:35:44;;;;;;;11.35;7.07;;;;;;;15.50;79.32;97900.34;5073891;28;20033;-80
2022/09/15 10:38:12;;;;;;;12.98;6.40;;;;;;;15.36;78.58;97875.34;5073516;28;20078;-80
2022/09/15 10:40:54;;;;;;;11.15;7.45;;;;;;;15.36;78.21;97866.47;5072463;28;20033;-80
2022/09/15 10:43:44;;;;;;;14.32;8.65;;;;;;;15.68;78.06;97906.69;5072640;28;20029;-80
2022/09/15 10:46:26;;;;;;;12.25;6.72;;;;;;;15.56;77.34;97882.19;5071429;28;20056;-80
2022/09/15 10:49:10;;;;;;;10.95;6.97;;;;;;;15.77;77.47;97904.06;5080214;28;20055;-80
2022/09/15 10:52:06;;;;;;;9.48;6.45;;;;;;;15.68;77.35;97899.38;5092721;28;20032;-80
2022/09/15 10:54:43;;;;;;;8.20;4.78;;;;;;;15.74;76.92;97900.06;5074631;28;20029;-80
2022/09/15 10:57:34;;;;;;;7.20;4.50;;;;;;;15.80;76.30;97904.22;5065106;28;20487;-80
2022/09/15 11:00:10;;;;;;;8.65;4.78;;;;;;;15.97;75.79;97906.25;5065956;28;20417;-80
2022/09/15 11:02:50;;;;;;;;;;;;;;;15.97;76.13;97911.63;5070743;28;20380;-80
2022/09/15 11:05:38;;;;;;;10.93;4.43;;;;;;;16.03;74.89;97897.75;5072566;28;19924;-80
2022/09/15 11:08:30;;;;;;;11.70;3.80;;;;;;;16.08;74.82;97900.31;5085822;28;20020;-80
2022/09/15 11:11:00;;;;;;;8.10;2.75;;;;;;;16.16;72.75;97901.47;5053403;28;20029;-80
2022/09/15 11:13:28;;;;;;;12.68;3.65;;;;;;;16.27;73.66;97898.22;5071659;28;20632;-80
2022/09/15 11:16:17;;;;;;;5.97;3.42;;;;;;;16.29;72.67;97906.78;5068384;28;20771;-80
2022/09/15 11:19:03;;;;;;;6.70;3.47;;;;;;;16.31;72.75;97898.41;5063513;28;20086;-80
2022/09/15 11:21:41;;;;;;;;;;;;;;;16.32;72.81;97905.38;5070957;28;20036;-80
2022/09/15 11:24:28;;;;;;;4.88;3.22;;;;;;;16.42;71.38;97907.81;5068893;28;19946;-80
2022/09/15 11:27:04;;;;;;;4.13;2.88;;;;;;;16.28;71.21;97885.56;5068828;28;20124;-80
2022/09/15 11:30:00;;;;;;;11.25;3.67;;;;;;;16.32;71.08;97906.16;5070452;28;20028;-80
2022/09/15 11:32:36;;;;;;;6.72;3.00;;;;;;;16.35;71.81;97888.59;5060421;28;20127;-80
2022/09/15 11:35:43;;;;;;;5.57;3.08;;;;;;;16.12;72.56;97913.97;5053975;28;20038;-80